Time;durP1;ratioP1;P1;durP2;ratioP2;P2;SDS_P1;SDS_P2;PMS_P1;PMS_P2;Temp;Humidity;BMP_temperature;BMP_pressure;BME280_temperature;BME280_humidity;BME280_pressure;Samples;Min_cycle;Max_cycle;Signal;HPM_P1;HPM_P2
2022/03/16 00:01:57;;;;;;;;;;;1.40;99.90;;;;;;5092475;28;19924;-73
2022/03/16 00:04:26;;;;;;;;;;;1.40;99.90;;;;;;5092445;28;19924;-74
2022/03/16 00:06:53;;;;;;;;;;;1.30;99.90;;;;;;5091733;28;20011;-74
2022/03/16 00:09:20;;;;;;;;;;;1.20;99.90;;;;;;5092445;28;19967;-73
2022/03/16 00:11:47;;;;;;;;;;;1.10;99.90;;;;;;5107035;28;19924;-74
2022/03/16 00:14:16;;;;;;;;;;;1.00;99.90;;;;;;5102738;28;19930;-74
2022/03/16 00:16:43;;;;;;;;;;;1.00;99.90;;;;;;5104362;28;19963;-74
2022/03/16 00:19:10;;;;;;;;;;;1.00;99.90;;;;;;5103313;28;20015;-74
2022/03/16 00:21:37;;;;;;;;;;;1.10;99.90;;;;;;5095734;28;19924;-74
2022/03/16 00:24:03;;;;;;;;;;;1.10;99.90;;;;;;5074994;28;19931;-74
2022/03/16 00:26:34;;;;;;;;;;;1.20;99.90;;;;;;5089695;28;19931;-74
2022/03/16 00:29:01;;;;;;;;;;;1.10;99.90;;;;;;5102350;28;20590;-74
2022/03/16 00:31:27;;;;;;;;;;;1.00;99.90;;;;;;5111168;28;19923;-74
2022/03/16 00:33:54;;;;;;;;;;;0.90;99.90;;;;;;5107054;28;19924;-74
2022/03/16 00:36:21;;;;;;;;;;;0.80;99.90;;;;;;5091846;28;20400;-74
2022/03/16 00:38:48;;;;;;;;;;;0.70;99.90;;;;;;5099055;28;20370;-74
2022/03/16 00:41:15;;;;;;;;;;;0.60;99.90;;;;;;5091621;28;19971;-74
2022/03/16 00:43:43;;;;;;;;;;;0.60;99.90;;;;;;5099099;28;19950;-74
2022/03/16 00:46:09;;;;;;;;;;;0.50;99.90;;;;;;5089832;28;19924;-74
2022/03/16 00:48:36;;;;;;;;;;;0.50;99.90;;;;;;5097787;28;20342;-74
2022/03/16 00:51:06;;;;;;;;;;;0.40;99.90;;;;;;5092261;28;19977;-74
2022/03/16 00:53:34;;;;;;;;;;;0.40;99.90;;;;;;5110122;28;20285;-74
2022/03/16 00:56:02;;;;;;;;;;;0.30;99.90;;;;;;5096685;28;19924;-74
2022/03/16 00:58:34;;;;;;;;;;;0.30;99.90;;;;;;5110251;28;20015;-74
2022/03/16 01:01:01;;;;;;;;;;;0.30;99.90;;;;;;5101070;28;19928;-74
2022/03/16 01:03:28;;;;;;;;;;;0.30;99.90;;;;;;5107397;28;19927;-74
2022/03/16 01:05:55;;;;;;;;;;;0.40;99.90;;;;;;5112637;28;19958;-74
2022/03/16 01:08:21;;;;;;;;;;;0.40;99.90;;;;;;5096155;28;20020;-74
2022/03/16 01:10:50;;;;;;;;;;;0.50;99.90;;;;;;5096454;28;19928;-74
2022/03/16 01:13:17;;;;;;;;;;;0.50;99.90;;;;;;5096582;28;19955;-75
2022/03/16 01:15:44;;;;;;;;;;;0.60;99.90;;;;;;5095222;28;19924;-74
2022/03/16 01:18:11;;;;;;;;;;;0.60;99.90;;;;;;5081982;28;19928;-75
2022/03/16 01:20:38;;;;;;;;;;;0.70;99.90;;;;;;5094605;28;19946;-74
2022/03/16 01:23:07;;;;;;;;;;;0.70;99.90;;;;;;5078480;28;19924;-74
2022/03/16 01:25:34;;;;;;;;;;;0.70;99.90;;;;;;5077733;28;20010;-74
2022/03/16 01:28:01;;;;;;;;;;;0.80;99.90;;;;;;5095263;28;19928;-74
2022/03/16 01:30:28;;;;;;;;;;;0.80;99.90;;;;;;5092751;28;19973;-74
2022/03/16 01:32:55;;;;;;;;;;;0.80;99.90;;;;;;5095669;28;19924;-74
2022/03/16 01:35:21;;;;;;;;;;;0.80;99.90;;;;;;5085559;28;19924;-74
2022/03/16 01:37:48;;;;;;;;;;;0.70;99.90;;;;;;5103617;28;19931;-75
2022/03/16 01:40:15;;;;;;;;;;;0.70;99.90;;;;;;5095753;28;19924;-75
2022/03/16 01:42:41;;;;;;;;;;;0.60;99.90;;;;;;5101371;28;20022;-74
2022/03/16 01:45:08;;;;;;;;;;;0.50;99.90;;;;;;5095513;28;20022;-74
2022/03/16 01:47:35;;;;;;;;;;;0.50;99.90;;;;;;5095793;28;20357;-74
2022/03/16 01:50:02;;;;;;;;;;;0.50;99.90;;;;;;5095132;28;19928;-74
2022/03/16 01:52:30;;;;;;;;;;;0.50;99.90;;;;;;5094792;28;19930;-74
2022/03/16 01:54:57;;;;;;;;;;;0.50;99.90;;;;;;5097212;28;20030;-75
2022/03/16 01:57:24;;;;;;;;;;;0.40;99.90;;;;;;5090776;28;19946;-75
2022/03/16 01:59:51;;;;;;;;;;;0.40;99.90;;;;;;5088468;28;19967;-74
2022/03/16 02:02:18;;;;;;;;;;;0.40;99.90;;;;;;5094772;28;19924;-74
2022/03/16 02:04:47;;;;;;;;;;;0.40;99.90;;;;;;5095223;28;20367;-75
2022/03/16 02:07:13;;;;;;;;;;;0.40;99.90;;;;;;5095075;28;19977;-75
2022/03/16 02:09:40;;;;;;;;;;;0.40;99.90;;;;;;5110584;28;20018;-75
2022/03/16 02:12:13;;;;;;;;;;;0.40;99.90;;;;;;5102597;28;20010;-74
2022/03/16 02:14:42;;;;;;;;;;;0.30;99.90;;;;;;5101673;28;19924;-75
2022/03/16 02:17:09;;;;;;;;;;;0.40;99.90;;;;;;5111702;28;20050;-74
2022/03/16 02:19:36;;;;;;;;;;;0.40;99.90;;;;;;5103952;28;19924;-74
2022/03/16 02:22:03;;;;;;;;;;;0.50;99.90;;;;;;5097577;28;19930;-74
2022/03/16 02:24:30;;;;;;;;;;;0.60;99.90;;;;;;5113720;28;19977;-74
2022/03/16 02:27:00;;;;;;;;;;;0.70;99.90;;;;;;5092522;28;20514;-74
2022/03/16 02:29:27;;;;;;;;;;;0.80;99.90;;;;;;5110225;28;19923;-74
2022/03/16 02:31:54;;;;;;;;;;;0.80;99.90;;;;;;5094081;28;19924;-74
2022/03/16 02:34:21;;;;;;;;;;;0.90;99.90;;;;;;5094067;28;19928;-74
2022/03/16 02:36:48;;;;;;;;;;;0.90;99.90;;;;;;5092909;28;19981;-74
2022/03/16 02:39:15;;;;;;;;;;;0.90;99.90;;;;;;5093656;28;19924;-74
2022/03/16 02:41:46;;;;;;;;;;;0.90;99.90;;;;;;5094386;28;20019;-74
2022/03/16 02:44:13;;;;;;;;;;;1.00;99.90;;;;;;5094009;28;19971;-74
2022/03/16 02:46:39;;;;;;;;;;;1.10;99.90;;;;;;5093556;28;19930;-74
2022/03/16 02:49:06;;;;;;;;;;;1.20;99.90;;;;;;5108198;28;20011;-75
2022/03/16 02:51:33;;;;;;;;;;;1.30;99.90;;;;;;5095840;28;19979;-74
2022/03/16 02:54:00;;;;;;;;;;;1.40;99.90;;;;;;5101046;28;19924;-75
2022/03/16 02:56:27;;;;;;;;;;;1.50;99.90;;;;;;5112578;28;20011;-75
2022/03/16 02:58:54;;;;;;;;;;;1.70;99.90;;;;;;5113925;28;19924;-75
2022/03/16 03:01:23;;;;;;;;;;;1.80;99.90;;;;;;5094336;28;19935;-75
2022/03/16 03:03:50;;;;;;;;;;;1.90;99.90;;;;;;5093998;28;19973;-75
2022/03/16 03:06:17;;;;;;;;;;;2.10;99.90;;;;;;5094107;28;19924;-75
2022/03/16 03:08:44;;;;;;;;;;;2.20;99.90;;;;;;5093443;28;19970;-75
2022/03/16 03:11:11;;;;;;;;;;;2.40;99.90;;;;;;5093503;28;19959;-75
2022/03/16 03:13:38;;;;;;;;;;;2.40;99.90;;;;;;5105179;28;20022;-76
2022/03/16 03:16:04;;;;;;;;;;;2.50;99.90;;;;;;5105580;28;20015;-76
2022/03/16 03:18:33;;;;;;;;;;;2.60;99.90;;;;;;5108565;28;20026;-76
2022/03/16 03:21:01;;;;;;;;;;;2.70;99.90;;;;;;5097351;28;19981;-76
2022/03/16 03:23:28;;;;;;;;;;;2.80;99.90;;;;;;5076048;28;19958;-76
2022/03/16 03:25:55;;;;;;;;;;;2.80;99.90;;;;;;5101855;28;19924;-76
2022/03/16 03:28:21;;;;;;;;;;;2.80;99.90;;;;;;5109357;28;19965;-76
2022/03/16 03:30:50;;;;;;;;;;;2.90;99.90;;;;;;5100308;28;20448;-76
2022/03/16 03:33:17;;;;;;;;;;;2.90;99.90;;;;;;5102744;28;20256;-76
2022/03/16 03:35:44;;;;;;;;;;;2.90;99.90;;;;;;5108249;28;19924;-76
2022/03/16 03:38:13;;;;;;;;;;;2.90;99.90;;;;;;5093596;28;19928;-76
2022/03/16 03:40:39;;;;;;;;;;;2.90;99.90;;;;;;5094230;28;19977;-76
2022/03/16 03:43:06;;;;;;;;;;;2.90;99.90;;;;;;5075696;28;19932;-76
2022/03/16 03:45:32;;;;;;;;;;;3.00;99.90;;;;;;5092421;28;19946;-76
2022/03/16 03:47:59;;;;;;;;;;;2.90;99.90;;;;;;5100765;28;19930;-76
2022/03/16 03:50:26;;;;;;;;;;;3.00;99.90;;;;;;5099484;28;19928;-75
2022/03/16 03:52:52;;;;;;;;;;;3.00;99.90;;;;;;5092953;28;20019;-75
2022/03/16 03:55:19;;;;;;;;;;;3.00;99.90;;;;;;5075786;28;19924;-78
2022/03/16 03:57:46;;;;;;;;;;;3.00;99.90;;;;;;5091898;28;20023;-76
2022/03/16 04:00:13;;;;;;;;;;;3.00;99.90;;;;;;5093597;28;20522;-75
2022/03/16 04:02:49;;;;;;;;;;;3.00;99.90;;;;;;5094673;28;20003;-76
2022/03/16 04:05:17;;;;;;;;;;;3.00;99.90;;;;;;5103401;28;19924;-76
2022/03/16 04:07:44;;;;;;;;;;;3.00;99.90;;;;;;5102948;28;19969;-76
2022/03/16 04:10:11;;;;;;;;;;;3.10;99.90;;;;;;5089846;28;20246;-76
2022/03/16 04:12:39;;;;;;;;;;;3.00;99.90;;;;;;5102523;28;19931;-76
2022/03/16 04:15:06;;;;;;;;;;;3.00;99.90;;;;;;5094861;28;19924;-76
2022/03/16 04:17:33;;;;;;;;;;;3.00;99.90;;;;;;5094008;28;20661;-76
2022/03/16 04:20:00;;;;;;;;;;;3.00;99.90;;;;;;5089432;28;19992;-76
2022/03/16 04:22:29;;;;;;;;;;;3.00;99.90;;;;;;5098856;28;19959;-76
2022/03/16 04:25:00;;;;;;;;;;;3.00;99.90;;;;;;5111612;28;19967;-76
2022/03/16 04:27:27;;;;;;;;;;;3.00;99.90;;;;;;5102375;28;19924;-76
2022/03/16 04:29:53;;;;;;;;;;;3.00;99.90;;;;;;5099169;28;19924;-76
2022/03/16 04:32:20;;;;;;;;;;;3.10;99.90;;;;;;5108815;28;20362;-76
2022/03/16 04:34:47;;;;;;;;;;;3.00;99.90;;;;;;5112671;28;19930;-77
2022/03/16 04:37:14;;;;;;;;;;;3.10;99.90;;;;;;5102543;28;20054;-77
2022/03/16 04:39:41;;;;;;;;;;;3.10;99.90;;;;;;5101347;28;19924;-76
2022/03/16 04:42:12;;;;;;;;;;;3.20;99.90;;;;;;5083718;28;19934;-76
2022/03/16 04:44:39;;;;;;;;;;;3.20;99.90;;;;;;5092997;28;19924;-76
2022/03/16 04:47:05;;;;;;;;;;;3.20;99.90;;;;;;5091513;28;19928;-76
2022/03/16 04:49:32;;;;;;;;;;;3.20;99.90;;;;;;5076294;28;19932;-76
2022/03/16 04:52:02;;;;;;;;;;;3.20;99.90;;;;;;5112005;28;19924;-76
2022/03/16 04:54:29;;;;;;;;;;;3.20;99.90;;;;;;5110236;28;19924;-76
2022/03/16 04:56:56;;;;;;;;;;;3.20;99.90;;;;;;5099923;28;19977;-76
2022/03/16 04:59:23;;;;;;;;;;;3.20;99.90;;;;;;5099691;28;20010;-77
2022/03/16 05:01:52;;;;;;;;;;;3.20;99.90;;;;;;5094124;28;19928;-77
2022/03/16 05:04:19;;;;;;;;;;;3.20;99.90;;;;;;5099941;28;19982;-76
2022/03/16 05:06:46;;;;;;;;;;;3.20;99.90;;;;;;5107688;28;19932;-77
2022/03/16 05:09:12;;;;;;;;;;;3.20;99.90;;;;;;5096122;28;19975;-77
2022/03/16 05:11:42;;;;;;;;;;;3.30;99.90;;;;;;5101329;28;19967;-76
2022/03/16 05:14:09;;;;;;;;;;;3.20;99.90;;;;;;5093133;28;19923;-76
2022/03/16 05:16:37;;;;;;;;;;;3.20;99.90;;;;;;5081473;28;20023;-76
2022/03/16 05:19:04;;;;;;;;;;;3.20;99.90;;;;;;5095018;28;19947;-76
2022/03/16 05:21:33;;;;;;;;;;;3.20;99.90;;;;;;5093107;28;19930;-76
2022/03/16 05:24:00;;;;;;;;;;;3.20;99.90;;;;;;5108146;28;20502;-76
2022/03/16 05:26:30;;;;;;;;;;;3.20;99.90;;;;;;5074171;28;20386;-77
2022/03/16 05:28:57;;;;;;;;;;;3.20;99.90;;;;;;5088153;28;20007;-76
2022/03/16 05:31:24;;;;;;;;;;;3.20;99.90;;;;;;5107004;28;20011;-76
2022/03/16 05:33:50;;;;;;;;;;;3.20;99.90;;;;;;5109387;28;20352;-76
2022/03/16 05:36:17;;;;;;;;;;;3.20;99.90;;;;;;5112350;28;19924;-75
2022/03/16 05:38:46;;;;;;;;;;;3.20;99.90;;;;;;5092566;28;19975;-76
2022/03/16 05:41:14;;;;;;;;;;;3.20;99.90;;;;;;5092399;28;19928;-76
2022/03/16 05:43:41;;;;;;;;;;;3.10;99.90;;;;;;5092477;28;20344;-77
2022/03/16 05:46:11;;;;;;;;;;;3.10;99.90;;;;;;5092615;28;19947;-77
2022/03/16 05:48:38;;;;;;;;;;;3.20;99.90;;;;;;5093936;28;19946;-76
2022/03/16 05:51:05;;;;;;;;;;;3.20;99.90;;;;;;5107600;28;19947;-77
2022/03/16 05:53:31;;;;;;;;;;;3.20;99.90;;;;;;5095643;28;19931;-75
2022/03/16 05:55:58;;;;;;;;;;;3.20;99.90;;;;;;5100512;28;19924;-77
2022/03/16 05:58:25;;;;;;;;;;;3.20;99.90;;;;;;5106088;28;20007;-77
2022/03/16 06:00:51;;;;;;;;;;;3.20;99.90;;;;;;5110149;28;20018;-77
2022/03/16 06:03:18;;;;;;;;;;;3.20;99.90;;;;;;5113556;28;19923;-77
2022/03/16 06:05:48;;;;;;;;;;;3.20;99.90;;;;;;5100006;28;19957;-77
2022/03/16 06:08:15;;;;;;;;;;;3.10;99.90;;;;;;5101957;28;20035;-77
2022/03/16 06:10:41;;;;;;;;;;;3.10;99.90;;;;;;5103816;28;19931;-76
2022/03/16 06:13:08;;;;;;;;;;;3.10;99.90;;;;;;5099144;28;19928;-76
2022/03/16 06:15:40;;;;;;;;;;;3.10;99.90;;;;;;5100829;28;20015;-76
2022/03/16 06:18:07;;;;;;;;;;;3.20;99.90;;;;;;5114065;28;20014;-76
2022/03/16 06:20:34;;;;;;;;;;;3.20;99.90;;;;;;5100640;28;19993;-76
2022/03/16 06:23:05;;;;;;;;;;;3.20;99.90;;;;;;5095215;28;19993;-77
2022/03/16 06:25:37;;;;;;;;;;;3.30;99.90;;;;;;5095532;28;19924;-76
2022/03/16 06:28:04;;;;;;;;;;;3.20;99.90;;;;;;5094514;28;20440;-76
2022/03/16 06:30:31;;;;;;;;;;;3.20;99.90;;;;;;5101111;28;19930;-77
2022/03/16 06:32:58;;;;;;;;;;;3.20;99.90;;;;;;5098942;28;19928;-77
2022/03/16 06:35:25;;;;;;;;;;;3.20;99.90;;;;;;5095045;28;19977;-77
2022/03/16 06:37:54;;;;;;;;;;;3.20;99.90;;;;;;5094791;28;20266;-77
2022/03/16 06:40:20;;;;;;;;;;;3.20;99.90;;;;;;5094899;28;20023;-77
2022/03/16 06:42:57;;;;;;;;;;;3.30;99.90;;;;;;5094579;28;19977;-77
2022/03/16 06:45:25;;;;;;;;;;;3.30;99.90;;;;;;5094996;28;19933;-76
2022/03/16 06:47:55;;;;;;;;;;;3.30;99.90;;;;;;5096393;28;20023;-76
2022/03/16 06:50:23;;;;;;;;;;;3.30;99.90;;;;;;5090822;28;20011;-76
2022/03/16 06:52:59;;;;;;;;;;;3.40;99.90;;;;;;5090062;28;19931;-76
2022/03/16 06:55:26;;;;;;;;;;;3.50;99.90;;;;;;5095343;28;19931;-76
2022/03/16 06:57:54;;;;;;;;;;;3.50;99.90;;;;;;5094507;28;19924;-76
2022/03/16 07:00:21;;;;;;;;;;;3.50;99.90;;;;;;5107588;28;19924;-76
2022/03/16 07:02:52;;;;;;;;;;;3.50;99.90;;;;;;5090652;28;19930;-76
2022/03/16 07:05:30;;;;;;;;;;;3.50;99.90;;;;;;5094638;28;19924;-76
2022/03/16 07:07:57;;;;;;;;;;;3.60;99.90;;;;;;5092668;28;19924;-76
2022/03/16 07:10:24;;;;;;;;;;;3.60;99.90;;;;;;5083829;28;19924;-76
2022/03/16 07:12:51;;;;;;;;;;;3.70;99.90;;;;;;5096159;28;19924;-76
2022/03/16 07:15:18;;;;;;;;;;;3.70;99.90;;;;;;5109362;28;19931;-76
2022/03/16 07:17:47;;;;;;;;;;;3.80;99.90;;;;;;5095523;28;19978;-76
2022/03/16 07:20:14;;;;;;;;;;;3.80;99.90;;;;;;5100996;28;19971;-76
2022/03/16 07:22:41;;;;;;;;;;;3.80;99.90;;;;;;5110951;28;20019;-76
2022/03/16 07:25:20;;;;;;;;;;;3.90;99.90;;;;;;5095052;28;20005;-76
2022/03/16 07:27:49;;;;;;;;;;;4.10;99.90;;;;;;5103775;28;20346;-76
2022/03/16 07:30:17;;;;;;;;;;;4.20;99.90;;;;;;5090795;28;19924;-76
2022/03/16 07:32:44;;;;;;;;;;;4.30;99.90;;;;;;5093780;28;19959;-76
2022/03/16 07:35:11;;;;;;;;;;;4.30;99.90;;;;;;5079609;28;19924;-76
2022/03/16 07:37:38;;;;;;;;;;;4.40;99.90;;;;;;5109453;28;19924;-77
2022/03/16 07:40:08;;;;;;;;;;;4.40;99.90;;;;;;5094372;28;19931;-77
2022/03/16 07:42:35;;;;;;;;;;;4.70;99.90;;;;;;5093577;28;19930;-77
2022/03/16 07:45:02;;;;;;;;;;;4.70;99.90;;;;;;5093624;28;20356;-77
2022/03/16 07:47:30;;;;;;;;;;;4.80;99.90;;;;;;5089346;28;19959;-77
2022/03/16 07:50:05;;;;;;;;;;;5.10;99.90;;;;;;5100415;28;19969;-77
2022/03/16 07:52:32;;;;;;;;;;;5.30;99.90;;;;;;5085377;28;19954;-77
2022/03/16 07:54:59;;;;;;;;;;;5.50;99.90;;;;;;5091056;28;20469;-77
2022/03/16 07:57:25;;;;;;;;;;;6.00;99.90;;;;;;5092626;28;19950;-77
2022/03/16 07:59:52;;;;;;;;;;;5.90;99.90;;;;;;5076689;28;19928;-77
2022/03/16 08:02:19;;;;;;;;;;;6.00;99.90;;;;;;5094434;28;19967;-77
2022/03/16 08:04:45;;;;;;;;;;;6.20;99.90;;;;;;5075695;28;20014;-77
2022/03/16 08:07:12;;;;;;;;;;;6.40;99.90;;;;;;5093302;28;20475;-78
2022/03/16 08:09:39;;;;;;;;;;;6.50;99.90;;;;;;5094276;28;19924;-77
2022/03/16 08:12:06;;;;;;;;;;;6.50;99.90;;;;;;5093444;28;20348;-77
2022/03/16 08:14:32;;;;;;;;;;;6.40;99.90;;;;;;5107801;28;20022;-77
2022/03/16 08:17:02;;;;;;;;;;;6.40;99.90;;;;;;5100611;28;19977;-77
2022/03/16 08:19:32;;;;;;;;;;;6.30;99.90;;;;;;5109915;28;19976;-77
2022/03/16 08:21:59;;;;;;;;;;;6.40;99.90;;;;;;5107374;28;19977;-78
2022/03/16 08:24:26;;;;;;;;;;;6.60;99.90;;;;;;5076346;28;20040;-77
2022/03/16 08:27:13;;;;;;;;;;;6.90;99.90;;;;;;5095298;28;19971;-77
2022/03/16 08:29:42;;;;;;;;;;;7.50;99.90;;;;;;5101111;28;19987;-76
2022/03/16 08:32:11;;;;;;;;;;;8.00;99.90;;;;;;5093021;28;20585;-77
2022/03/16 08:34:40;;;;;;;;;;;8.30;99.90;;;;;;5093006;28;20221;-78
2022/03/16 08:37:08;;;;;;;;;;;8.70;99.90;;;;;;5098532;28;20383;-78
2022/03/16 08:39:44;;;;;;;;;;;9.00;99.90;;;;;;5092391;28;19967;-78
2022/03/16 08:42:11;;;;;;;;;;;9.40;99.90;;;;;;5094443;28;19974;-77
2022/03/16 08:44:38;;;;;;;;;;;9.40;99.90;;;;;;5075190;28;20383;-77
2022/03/16 08:47:05;;;;;;;;;;;9.40;99.90;;;;;;5092991;28;19977;-76
2022/03/16 08:49:32;;;;;;;;;;;9.50;99.90;;;;;;5092934;28;20370;-76
2022/03/16 08:51:59;;;;;;;;;;;9.40;99.90;;;;;;5093000;28;20066;-77
2022/03/16 08:54:26;;;;;;;;;;;9.70;99.90;;;;;;5105140;28;20022;-76
2022/03/16 08:56:53;;;;;;;;;;;10.00;99.90;;;;;;5094843;28;19928;-77
2022/03/16 08:59:20;;;;;;;;;;;9.90;99.90;;;;;;5073923;28;20345;-76
2022/03/16 09:01:47;;;;;;;;;;;9.70;99.90;;;;;;5103624;28;19923;-77
2022/03/16 09:04:14;;;;;;;;;;;9.50;99.90;;;;;;5098323;28;19924;-76
2022/03/16 09:06:41;;;;;;;;;;;9.30;99.90;;;;;;5094913;28;20519;-76
2022/03/16 09:09:08;;;;;;;;;;;9.20;99.90;;;;;;5105788;28;19993;-77
2022/03/16 09:11:35;;;;;;;;;;;8.90;99.90;;;;;;5094435;28;19946;-76
2022/03/16 09:14:02;;;;;;;;;;;9.00;99.90;;;;;;5092772;28;20015;-76
2022/03/16 09:16:29;;;;;;;;;;;9.30;99.90;;;;;;5092242;28;19978;-77
2022/03/16 09:18:56;;;;;;;;;;;9.90;99.90;;;;;;5074687;28;19928;-77
2022/03/16 09:21:25;;;;;;;;;;;10.10;99.90;;;;;;5092203;28;19985;-78
2022/03/16 09:23:55;;;;;;;;;;;10.40;99.90;;;;;;5098184;28;19934;-76
2022/03/16 09:26:22;;;;;;;;;;;10.30;99.90;;;;;;5112357;28;20010;-77
2022/03/16 09:28:52;;;;;;;;;;;10.40;99.90;;;;;;5090248;28;19930;-77
2022/03/16 09:31:20;;;;;;;;;;;10.40;99.90;;;;;;5098140;28;19970;-78
2022/03/16 09:33:47;;;;;;;;;;;10.60;99.90;;;;;;5105199;28;20078;-77
2022/03/16 09:36:14;;;;;;;;;;;11.10;99.90;;;;;;5079043;28;19931;-78
2022/03/16 09:38:41;;;;;;;;;;;11.40;99.90;;;;;;5097743;28;19923;-78
2022/03/16 09:41:07;;;;;;;;;;;11.40;99.90;;;;;;5100183;28;20346;-78
2022/03/16 09:43:38;;;;;;;;;;;11.50;99.90;;;;;;5096258;28;20459;-78
2022/03/16 09:46:04;;;;;;;;;;;12.10;99.90;;;;;;5096360;28;19931;-79
2022/03/16 09:48:32;;;;;;;;;;;12.30;99.90;;;;;;5095490;28;20003;-78
2022/03/16 09:50:58;;;;;;;;;;;12.40;99.90;;;;;;5096159;28;19924;-78
2022/03/16 09:53:30;;;;;;;;;;;12.60;99.90;;;;;;5095287;28;19950;-78
2022/03/16 09:55:57;;;;;;;;;;;12.60;99.90;;;;;;5094932;28;20340;-77
2022/03/16 09:58:24;;;;;;;;;;;12.20;99.90;;;;;;5093916;28;20015;-78
2022/03/16 10:00:55;;;;;;;;;;;11.90;99.90;;;;;;5091817;28;19928;-78
2022/03/16 10:03:23;;;;;;;;;;;11.80;99.90;;;;;;5110001;28;20007;-78
2022/03/16 10:05:51;;;;;;;;;;;12.40;99.90;;;;;;5104192;28;20048;-78
2022/03/16 10:08:25;;;;;;;;;;;12.20;99.90;;;;;;5084913;28;19959;-77
2022/03/16 10:13:48;;;;;;;;;;;12.10;99.90;;;;;;5103953;28;19931;-78
2022/03/16 10:16:14;;;;;;;;;;;12.30;99.90;;;;;;5095081;28;19935;-77
2022/03/16 10:18:41;;;;;;;;;;;12.70;99.90;;;;;;5094817;28;20351;-77
2022/03/16 10:21:11;;;;;;;;;;;13.00;99.90;;;;;;5094753;28;19970;-77
2022/03/16 10:23:39;;;;;;;;;;;13.20;99.90;;;;;;5094898;28;19968;-76
2022/03/16 10:26:06;;;;;;;;;;;13.00;99.90;;;;;;5086208;28;19930;-75
2022/03/16 10:28:33;;;;;;;;;;;13.10;99.90;;;;;;5076003;28;20602;-75
2022/03/16 10:31:05;;;;;;;;;;;13.00;99.90;;;;;;5100247;28;19946;-75
2022/03/16 10:33:33;;;;;;;;;;;13.30;99.90;;;;;;5103501;28;19932;-75
2022/03/16 10:36:05;;;;;;;;;;;13.40;99.90;;;;;;5112783;28;19924;-75
2022/03/16 10:38:35;;;;;;;;;;;13.20;99.90;;;;;;5094627;28;20413;-75
2022/03/16 10:47:14;;;;;;;;;;;13.40;99.90;;;;;;5035507;28;20059;-75
2022/03/16 10:49:44;;;;;;;;;;;13.40;99.90;;;;;;5049404;28;20014;-75
2022/03/16 10:52:14;;;;;;;;;;;13.50;99.90;;;;;;5049896;28;19948;-74
2022/03/16 10:54:42;;;;;;;;;;;13.50;99.90;;;;;;5048912;28;20387;-75
2022/03/16 10:57:13;;;;;;;;;;;13.80;99.90;;;;;;5049008;28;19956;-75
2022/03/16 10:59:42;;;;;;;;;;;14.00;99.90;;;;;;5049706;28;19924;-75
2022/03/16 11:02:12;;;;;;;;;;;14.20;99.90;;;;;;5048942;28;20408;-74
2022/03/16 11:04:57;;;;;;;;;;;14.80;99.90;;;;;;5032824;28;19935;-73
2022/03/16 11:07:24;;;;;;;;;;;15.20;99.90;;;;;;5047289;28;19975;-73
2022/03/16 11:09:51;;;;;;;;;;;15.70;99.90;;;;;;5042181;28;19925;-73
2022/03/16 11:15:09;;;;;;;;;;;16.30;99.90;;;;;;5047958;28;19994;-72
2022/03/16 11:17:39;;;;;;;;;;;16.10;99.90;;;;;;5048358;28;20384;-72
2022/03/16 11:20:08;;;;;;;;;;;16.00;99.90;;;;;;5063092;28;20035;-72
2022/03/16 11:22:36;;;;;;;;;;;15.90;99.90;;;;;;5082485;28;19924;-72
2022/03/16 11:25:08;;;;;;;;;;;15.80;99.90;;;;;;5092138;28;19975;-73
2022/03/16 11:27:42;;;;;;;;;;;16.00;99.90;;;;;;5075408;28;19947;-72
2022/03/16 11:30:14;;;;;;;;;;;15.80;99.90;;;;;;5100515;28;19924;-72
2022/03/16 11:32:42;;;;;;;;;;;16.20;99.90;;;;;;5106749;28;19924;-75
2022/03/16 11:35:10;;;;;;;;;;;16.50;99.90;;;;;;5109574;28;19946;-73
2022/03/16 11:37:43;;;;;;;;;;;16.60;99.90;;;;;;5095842;28;19967;-73
2022/03/16 11:40:20;;;;;;;;;;;16.30;99.90;;;;;;5085019;28;20340;-73
2022/03/16 11:43:05;;;;;;;;;;;16.10;99.90;;;;;;5109327;28;20403;-74
2022/03/16 11:45:54;;;;;;;;;;;16.40;99.90;;;;;;5092781;28;20353;-73
2022/03/16 11:51:13;;;;;;;;;;;16.10;99.90;;;;;;5109427;28;20304;-74
2022/03/16 11:53:46;;;;;;;;;;;16.40;99.90;;;;;;5111308;28;19947;-73
2022/03/16 11:56:20;;;;;;;;;;;16.40;99.90;;;;;;5080787;28;19989;-73
2022/03/16 11:58:48;;;;;;;;;;;16.70;99.90;;;;;;5092841;28;20024;-73
2022/03/16 12:01:29;;;;;;;;;;;16.20;99.90;;;;;;5093052;28;19924;-73
2022/03/16 12:04:15;;;;;;;;;;;16.00;99.90;;;;;;5098223;28;20010;-73
2022/03/16 12:07:01;;;;;;;;;;;15.90;99.90;;;;;;5110169;28;19924;-73
2022/03/16 12:09:33;;;;;;;;;;;15.40;99.90;;;;;;5102783;28;20524;-73
2022/03/16 12:15:02;;;;;;;;;;;14.20;99.90;;;;;;5102670;28;19935;-73
2022/03/16 12:17:34;;;;;;;;;;;14.10;99.90;;;;;;5097135;28;20399;-73
2022/03/16 12:20:11;;;;;;;;;;;14.20;99.90;;;;;;5098848;28;19949;-73
2022/03/16 12:22:46;;;;;;;;;;;14.50;99.90;;;;;;5099041;28;19958;-73
2022/03/16 12:25:27;;;;;;;;;;;14.80;99.90;;;;;;5091700;28;19978;-73
2022/03/16 12:30:47;;;;;;;;;;;15.50;99.90;;;;;;5096182;28;19977;-73
2022/03/16 12:33:22;;;;;;;;;;;15.80;99.90;;;;;;5106818;28;19981;-73
2022/03/16 12:35:50;;;;;;;;;;;16.50;99.90;;;;;;5103300;28;19971;-71
2022/03/16 12:38:17;;;;;;;;;;;17.10;99.90;;;;;;5091149;28;19974;-71
2022/03/16 12:43:32;;;;;;;;;;;17.20;99.90;;;;;;5105219;28;19948;-72
2022/03/16 12:46:23;;;;;;;;;;;16.60;99.90;;;;;;5093249;28;19924;-72
2022/03/16 12:48:54;;;;;;;;;;;16.80;99.90;;;;;;5102667;28;19932;-72
2022/03/16 12:51:39;;;;;;;;;;;17.20;99.90;;;;;;5101265;28;20576;-73
2022/03/16 12:54:06;;;;;;;;;;;17.40;99.90;;;;;;5093175;28;19924;-73
2022/03/16 12:56:39;;;;;;;;;;;17.80;99.90;;;;;;5104261;28;20022;-72
2022/03/16 12:59:06;;;;;;;;;;;17.70;99.90;;;;;;5084680;28;20353;-72
2022/03/16 13:01:32;;;;;;;;;;;17.20;99.90;;;;;;5113075;28;20026;-72
2022/03/16 13:04:00;;;;;;;;;;;16.30;99.90;;;;;;5092517;28;19931;-72
2022/03/16 13:06:33;;;;;;;;;;;15.50;99.90;;;;;;5092722;28;19930;-71
2022/03/16 13:09:04;;;;;;;;;;;15.00;99.90;;;;;;5093496;28;19924;-71
2022/03/16 13:11:32;;;;;;;;;;;14.60;99.90;;;;;;5077743;28;19946;-71
2022/03/16 13:14:06;;;;;;;;;;;14.30;99.90;;;;;;5087243;28;19977;-71
2022/03/16 13:16:39;;;;;;;;;;;14.20;99.90;;;;;;5096283;28;20039;-72
2022/03/16 13:19:06;;;;;;;;;;;14.20;99.90;;;;;;5114035;28;20064;-72
2022/03/16 13:21:34;;;;;;;;;;;14.40;99.90;;;;;;5110288;28;19927;-71
2022/03/16 13:24:01;;;;;;;;;;;14.50;99.90;;;;;;5095658;28;19924;-71
2022/03/16 13:26:28;;;;;;;;;;;14.50;99.90;;;;;;5086572;28;20305;-72
2022/03/16 13:28:57;;;;;;;;;;;14.70;99.90;;;;;;5108453;28;19999;-72
2022/03/16 13:31:26;;;;;;;;;;;14.90;99.90;;;;;;5106037;28;20011;-72
2022/03/16 13:33:53;;;;;;;;;;;14.90;99.90;;;;;;5094469;28;19928;-72
2022/03/16 13:36:30;;;;;;;;;;;14.70;99.90;;;;;;5083889;28;19934;-72
2022/03/16 13:38:58;;;;;;;;;;;14.60;99.90;;;;;;5108937;28;19935;-73
2022/03/16 13:41:28;;;;;;;;;;;14.50;99.90;;;;;;5103968;28;20018;-71
2022/03/16 13:44:05;;;;;;;;;;;14.40;99.90;;;;;;5102416;28;20139;-73
2022/03/16 13:46:38;;;;;;;;;;;14.20;99.90;;;;;;5105065;28;20433;-72
2022/03/16 13:49:14;;;;;;;;;;;14.10;99.90;;;;;;5097108;28;20019;-72
2022/03/16 13:51:59;;;;;;;;;;;14.00;99.90;;;;;;5094800;28;19974;-72
2022/03/16 13:54:26;;;;;;;;;;;14.00;99.90;;;;;;5108628;28;19928;-72
2022/03/16 13:56:54;;;;;;;;;;;14.10;99.90;;;;;;5096632;28;20006;-73
2022/03/16 13:59:20;;;;;;;;;;;14.10;99.90;;;;;;5105117;28;20020;-72
2022/03/16 14:01:48;;;;;;;;;;;14.00;99.90;;;;;;5102105;28;19924;-72
2022/03/16 14:04:18;;;;;;;;;;;14.10;99.90;;;;;;5102064;28;19931;-72
2022/03/16 14:06:47;;;;;;;;;;;14.00;99.90;;;;;;5090669;28;19928;-72
2022/03/16 14:09:18;;;;;;;;;;;13.90;99.90;;;;;;5090990;28;19969;-72
2022/03/16 14:11:46;;;;;;;;;;;13.80;99.90;;;;;;5092286;28;19935;-72
2022/03/16 14:14:15;;;;;;;;;;;13.80;99.90;;;;;;5075774;28;19924;-72
2022/03/16 14:16:45;;;;;;;;;;;13.60;99.90;;;;;;5091757;28;20416;-72
2022/03/16 14:19:33;;;;;;;;;;;13.50;99.90;;;;;;5104633;28;20357;-73
2022/03/16 14:22:00;;;;;;;;;;;13.60;99.90;;;;;;5094487;28;20015;-73
2022/03/16 14:24:27;;;;;;;;;;;13.60;99.90;;;;;;5106443;28;19977;-73
2022/03/16 14:27:15;;;;;;;;;;;13.60;99.90;;;;;;5094208;28;19928;-73
2022/03/16 14:29:42;;;;;;;;;;;13.60;99.90;;;;;;5102082;28;20019;-71
2022/03/16 14:32:09;;;;;;;;;;;13.60;99.90;;;;;;5108541;28;20324;-71
2022/03/16 14:34:40;;;;;;;;;;;13.60;99.90;;;;;;5093510;28;20014;-71
2022/03/16 14:37:09;;;;;;;;;;;13.70;99.90;;;;;;5095596;28;19963;-71
2022/03/16 14:39:37;;;;;;;;;;;13.70;99.90;;;;;;5105317;28;20018;-71
2022/03/16 14:42:04;;;;;;;;;;;13.70;99.90;;;;;;5107804;28;19928;-71
2022/03/16 14:44:30;;;;;;;;;;;13.70;99.90;;;;;;5106087;28;19928;-71
2022/03/16 14:46:57;;;;;;;;;;;13.60;99.90;;;;;;5101186;28;19924;-72
2022/03/16 14:49:31;;;;;;;;;;;13.50;99.90;;;;;;5108111;28;19924;-71
2022/03/16 14:51:58;;;;;;;;;;;13.40;99.90;;;;;;5100747;28;19951;-71
2022/03/16 14:54:25;;;;;;;;;;;13.40;99.90;;;;;;5100695;28;20011;-72
2022/03/16 14:56:54;;;;;;;;;;;13.50;99.90;;;;;;5085344;28;20410;-71
2022/03/16 14:59:21;;;;;;;;;;;13.50;99.90;;;;;;5109834;28;20018;-71